Atlantic - Newfoundland: Past 24 Hour Conditions

 

Blanc-Sablon Airport

07:00 AM AST 23 November 2014
This table is a summary of hourly weather conditions for the past 24 hours.
Date / Time
(AST)
Wind(knots) Conditions Visibility(km) Pressure(kPa) Air tempC) Relative humidity(%) Dew pointC) Wind Chill
23 November 2014
7:00 W 12 gust 17 Clear 24 99.9 -8 77 -11 -15
6:00 W 15 gust 23 Mainly Clear 24 99.8 -7 69 -12 -16
5:00 W 14 gust 21 Mostly Cloudy 24 99.8 -7 68 -12 -15
4:00 WNW 10 gust 16 Partly Cloudy 24 99.8 -7 78 -10 -14
3:00 W 13 Partly Cloudy 24 99.8 -8 78 -11 -15
2:00 W 18 Partly Cloudy 24 99.8 -7 73 -11 -17
1:00 W 17 gust 25 Partly Cloudy 24 99.8 -7 72 -11 -16
0:00 W 21 gust 28 Mainly Clear 24 99.8 -7 73 -11 -17
22 November 2014
23:00 W 17 gust 26 Mainly Clear 24 99.8 -7 67 -12 -16
22:00 W 19 gust 24 Mostly Cloudy 24 99.8 -7 66 -12 -16
21:00 W 20 gust 28 Cloudy 24 99.9 -7 65 -12 -16
20:00 W 23 gust 32 Mostly Cloudy 24 100.0 -7 65 -13 -17
19:00 W 24 gust 34 Partly Cloudy 24 99.9 -7 65 -13 -17
18:00 W 24 gust 37 Clear 24 99.9 -7 64 -13 -17
17:00 W 23 gust 33 Clear 24 99.9 -7 63 -13 -17
16:00 W 19 gust 31 Clear 24 99.9 -7 63 -13 -16
15:00 W 20 gust 28 Mainly Sunny 24 99.9 -7 57 -14 -16
14:00 W 20 gust 29 Sunny 24 99.8 -7 59 -13 -16
13:00 W 18 gust 26 Mainly Sunny 24 99.8 -7 62 -13 -16
12:00 W 20 gust 25 Sunny 24 99.8 -7 62 -14 -17
11:00 W 23 gust 29 Sunny 24 99.8 -8 59 -15 -19
10:00 W 22 gust 29 Mainly Sunny 24 99.8 -9 63 -15 -20
9:00 W 18 gust 29 Mainly Sunny 24 99.8 -10 66 -15 -20
8:00 W 15 gust 21 Drifting Snow 24 99.8 -10 71 -15 -20
7:00 W 24 gust 31 Drifting Snow 24 99.7 -11 67 -16 -22
 
Map of Atlantic - Newfoundland marine weather areas Southwestern Grand Banks - 44138 Banquereau - 44139 Tail of the Bank - 44140 Nickerson Bank - 44251 Northeast Burgeo Bank - 44255 Blanc-Sablon Airport Cap Whittle Chevery Natashquan Airport Heath Point Miscou Island Grand Étang Ingonish Beach North Mountain St.Paul Island J.A. Douglas McCurdy Sydney Airport Charlottetown Airport East Point North Cape Argentia Bonavista Burgeo Cape Race Corner Brook Daniel's Harbour Englee Ferolle Point La Scie Port aux Basques Rocky Harbour Sagona Island St. Anthony Airport St. John's Int'l Airport St. Lawrence Stephenville Airport Twillingate Winterland Wreckhouse Cartwright Airport Mary's Harbour Grates Cove Pool's Island Marticot Island Long Pond Îles de la Madeleine Airport
Legend: buoyBuoy land stationLand Station